Terminal Aerodrome Forecast
Issued by NWS

Home | Current Version | Previous Version | Text Only | Print | Product List | Glossary On
Versions: 1 2 3 4 5 6 7 8 9 10 11 12 13 14
388
FTUS45 KVEF 110520
TAFVGT
TAF
KVGT 110520Z 1106/1206 31005KT P6SM FEW070 SCT150 BKN200
     FM111900 VRB05KT P6SM FEW070 SCT150 BKN200
     FM120300 21006KT P6SM FEW070 FEW150 BKN200=

USA.gov is the U.S. government's official web portal to all federal, state and local government web resources and services.